This is the latest recevied weather packets stored in our database for station/object HP3ICC-22. If no packets are shown the sender has not sent any weather packets the latest 10 day(s).
| Time | Temp. | Humidity | Pressure | Rain* | Wind** | Luminosity | Snow |
|---|---|---|---|---|---|---|---|
| 1777762927 | 10° C | 82% | 1012 hPa | 0.25 mm | - | - | - |
| 1777762867 | 10° C | 82% | 1012 hPa | 0.25 mm | - | - | - |
| 1777761727 | 10.56° C | 82% | 1012 hPa | 0 mm | - | - | - |
| 1777761667 | 10.56° C | 82% | 1012 hPa | 0 mm | - | - | - |
| 1777760526 | 11.11° C | 82% | 1010 hPa | 0 mm | - | - | - |
| 1777760466 | 11.11° C | 82% | 1010 hPa | 0 mm | - | - | - |
| 1777759326 | 11.11° C | 82% | 1011 hPa | 0 mm | - | - | - |
| 1777759266 | 11.11° C | 82% | 1011 hPa | 0 mm | - | - | - |
| 1777758126 | 10° C | 85% | 1011 hPa | 0 mm | - | - | - |
| 1777758065 | 10° C | 85% | 1011 hPa | 0 mm | - | - | - |
| 1777756925 | 10.56° C | 85% | 1010 hPa | 0.25 mm | - | - | - |
| 1777756865 | 10.56° C | 85% | 1010 hPa | 0.25 mm | - | - | - |
| 1777755725 | 11.11° C | 83% | 1012 hPa | 0 mm | - | - | - |
| 1777755665 | 11.11° C | 83% | 1012 hPa | 0 mm | - | - | - |
| 1777754524 | 12.22° C | 82% | 1012 hPa | 0.25 mm | - | - | - |
| 1777754464 | 12.22° C | 82% | 1012 hPa | 0.25 mm | - | - | - |
| 1777753323 | 11.11° C | 86% | 1011 hPa | 1.02 mm | - | - | - |
| 1777753263 | 11.11° C | 86% | 1011 hPa | 1.02 mm | - | - | - |
| 1777752123 | 11.11° C | 86% | 1012 hPa | 1.02 mm | - | - | - |
| 1777752063 | 11.11° C | 86% | 1012 hPa | 1.02 mm | - | - | - |
| 1777750923 | 11.67° C | 86% | 1012 hPa | 1.02 mm | - | - | - |
| 1777750862 | 11.67° C | 86% | 1012 hPa | 1.02 mm | - | - | - |
| 1777749722 | 12.22° C | 82% | 1011 hPa | 1.52 mm | - | - | - |
| 1777749662 | 12.22° C | 82% | 1011 hPa | 1.52 mm | - | - | - |
| 1777748522 | 11.11° C | 90% | 1012 hPa | 1.52 mm | - | - | - |
* Rain latest hour (hover to see other rain measurements)
** Current wind speed in m/s (hover to see current wind gust speed)